| time (UTC) | temp F | wind direction | speed MPH | gust MPH | rain 1hr in | rain 24hr in | rain mn in | humidity % | barometer mb |
| 20260506043328 | 52 | 157 | 0.0 | 0.0 | 0.00 | 0.00 | 0.00 | 74 | 786.8 |
| 20260506040335 | 53 | 220 | 0.0 | 0.0 | 0.00 | 0.00 | 0.00 | 73 | 786.7 |
| 20260506033333 | 53 | 225 | 1.0 | 0.0 | 0.00 | 0.00 | 0.00 | 72 | 786.6 |
| 20260506030333 | 54 | 175 | 1.0 | 0.0 | 0.00 | 0.00 | 0.00 | 69 | 786.6 |
| 20260506023343 | 55 | 290 | 1.0 | 0.0 | 0.00 | 0.00 | 0.00 | 69 | 786.6 |
| 20260506020330 | 56 | 173 | 0.0 | 0.0 | 0.00 | 0.00 | 0.00 | 66 | 786.5 |
| 20260506013349 | 56 | 14 | 0.0 | 0.0 | 0.00 | 0.00 | 0.00 | 65 | 786.4 |
| 20260506010337 | 56 | 317 | 0.0 | 0.0 | 0.00 | 0.00 | 0.00 | 68 | 786.3 |
| 20260506003337 | 57 | 239 | 0.0 | 0.0 | 0.00 | 0.00 | 0.00 | 64 | 786.1 |
| 20260506000323 | 61 | 269 | 0.0 | 0.0 | 0.00 | 0.00 | 0.00 | 56 | 785.9 |
| 20260505233335 | 62 | 288 | 0.0 | 0.0 | 0.00 | 0.00 | 0.00 | 53 | 785.8 |
| 20260505230324 | 63 | 287 | 0.0 | 0.0 | 0.00 | 0.00 | 0.00 | 54 | 785.7 |
| 20260505223327 | 64 | 288 | 0.0 | 0.0 | 0.00 | 0.00 | 0.00 | 62 | 785.5 |
| 20260505220358 | 65 | 284 | 0.0 | 0.0 | 0.00 | 0.00 | 0.00 | 62 | 785.3 |
| 20260505213339 | 66 | 271 | 0.0 | 0.0 | 0.00 | 0.00 | 0.00 | 64 | 785.2 |
| 20260505210334 | 66 | 203 | 0.0 | 0.0 | 0.00 | 0.00 | 0.00 | 62 | 785.2 |
| 20260505203333 | 67 | 265 | 0.0 | 0.0 | 0.00 | 0.00 | 0.00 | 60 | 785.1 |
| 20260505200340 | 70 | 259 | 0.0 | 0.0 | 0.00 | 0.00 | 0.00 | 55 | 784.8 |
| 20260505193337 | 72 | 129 | 1.0 | 0.0 | 0.00 | 0.00 | 0.00 | 52 | 784.8 |
| 20260505190329 | 73 | 175 | 2.0 | 0.0 | 0.00 | 0.00 | 0.00 | 52 | 784.8 |
| 20260505183334 | 73 | 80 | 1.0 | 0.0 | 0.00 | 0.00 | 0.00 | 52 | 784.8 |
| 20260505180328 | 71 | 200 | 2.0 | 0.0 | 0.00 | 0.00 | 0.00 | 55 | 784.8 |
| 20260505173338 | 71 | 242 | 2.0 | 0.0 | 0.00 | 0.00 | 0.00 | 53 | 784.8 |
| 20260505170321 | 70 | 341 | 1.0 | 0.0 | 0.00 | 0.00 | 0.00 | 58 | 784.8 |
| 20260505163341 | 68 | 229 | 0.0 | 0.0 | 0.00 | 0.00 | 0.00 | 66 | 784.9 |
| 20260505160424 | 67 | 194 | 0.0 | 0.0 | 0.00 | 0.00 | 0.00 | 68 | 784.9 |
| 20260505150357 | 66 | 123 | 0.0 | 0.0 | 0.00 | 0.00 | 0.00 | 69 | 785.0 |
| 20260505140344 | 65 | 116 | 1.0 | 0.0 | 0.00 | 0.00 | 0.00 | 69 | 785.1 |
| 20260505123320 | 60 | 208 | 0.0 | 0.0 | 0.00 | 0.00 | 0.00 | 79 | 785.3 |
| 20260505120328 | 60 | 210 | 1.0 | 0.0 | 0.00 | 0.00 | 0.00 | 75 | 785.3 |
| 20260505113325 | 56 | 223 | 0.0 | 0.0 | 0.00 | 0.00 | 0.00 | 76 | 785.2 |
| 20260505110339 | 49 | 193 | 0.0 | 0.0 | 0.00 | 0.00 | 0.00 | 87 | 785.1 |
| 20260505100413 | 47 | 193 | 0.0 | 0.0 | 0.00 | 0.00 | 0.00 | 86 | 785.2 |
| 20260505093339 | 47 | 193 | 0.0 | 0.0 | 0.00 | 0.00 | 0.00 | 85 | 785.2 |
| 20260505090328 | 49 | 193 | 0.0 | 0.0 | 0.00 | 0.00 | 0.00 | 81 | 785.2 |
| 20260505083328 | 52 | 193 | 0.0 | 0.0 | 0.00 | 0.00 | 0.00 | 73 | 785.2 |
| 20260505080342 | 55 | 185 | 0.0 | 0.0 | 0.00 | 0.00 | 0.00 | 66 | 785.2 |
| 20260505073324 | 53 | 109 | 0.0 | 0.0 | 0.00 | 0.00 | 0.00 | 73 | 785.2 |
| 20260505070336 | 47 | 150 | 0.0 | 0.0 | 0.00 | 0.00 | 0.00 | 88 | 785.3 |
| 20260505063328 | 48 | 150 | 0.0 | 0.0 | 0.00 | 0.00 | 0.00 | 87 | 785.3 |
| 20260505060341 | 48 | 150 | 0.0 | 0.0 | 0.00 | 0.00 | 0.00 | 87 | 785.3 |
| 20260505053328 | 48 | 150 | 0.0 | 0.0 | 0.00 | 0.00 | 0.00 | 86 | 785.4 |
| 20260505050338 | 49 | 150 | 0.0 | 0.0 | 0.00 | 0.00 | 0.00 | 85 | 785.5 |